Date,TemperatureHighF,TemperatureAvgF,TemperatureLowF,DewpointHighF,DewpointAvgF,DewpointLowF,HumidityHigh,HumidityAvg,HumidityLow,PressureMaxIn,PressureMinIn,WindSpeedMaxMPH,WindSpeedAvgMPH,GustSpeedMaxMPH,PrecipitationSumIn
2013-1-3,79.0,72.7,70.5,66.5,65.6,59.9,86,79,60,30.18,30.12,0,0,0,0.00
2013-1-4,81.0,72.9,67.1,70.7,67.4,64.7,95,83,66,30.27,30.15,6,1,6,0.08
2013-1-5,74.8,69.8,66.4,70.6,67.2,64.6,95,92,80,30.30,30.21,9,2,9,0.04
2013-1-6,79.7,72.1,65.8,73.0,67.8,64.1,98,87,73,30.24,30.12,8,2,8,0.00
2013-1-7,73.6,70.8,67.8,70.8,69.1,66.6,96,94,87,30.21,30.12,5,0,5,0.28
2013-1-8,80.4,73.8,70.2,74.8,70.8,69.2,98,91,75,30.24,30.15,8,2,8,0.08
2013-1-9,81.7,76.2,73.0,72.2,70.2,68.1,94,82,69,30.33,30.21,9,3,9,0.00
2013-1-10,74.3,73.7,73.0,68.4,66.5,63.9,82,78,73,30.33,30.30,7,2,7,0.00
2013-1-11,79.7,75.0,71.8,69.9,67.2,64.7,86,77,69,30.30,30.21,9,2,9,0.00
2013-1-12,79.5,74.0,68.7,67.9,66.0,63.6,87,77,62,30.21,30.15,4,1,4,0.00
2013-1-13,80.1,74.0,68.7,68.6,64.7,61.2,87,73,60,30.18,30.12,11,2,11,0.00
2013-1-14,79.0,74.8,66.7,66.5,63.5,60.7,88,69,61,30.21,30.18,5,2,5,0.00
2013-1-15,79.2,74.4,67.6,67.4,65.1,62.8,85,73,61,30.18,30.09,8,2,8,0.00
2013-1-16,79.7,71.2,65.5,70.8,65.4,62.2,97,82,68,30.15,30.06,0,0,0,0.00
2013-1-17,77.5,71.7,62.6,72.1,66.3,49.4,98,84,63,30.15,30.00,10,2,10,0.08
2013-1-18,70.9,63.1,53.8,57.5,50.9,43.4,75,64,56,30.30,30.15,10,4,10,0.00
2013-1-19,70.7,68.5,66.4,68.5,63.4,57.0,97,84,67,30.27,30.15,5,0,5,0.24
2013-1-20,76.3,70.3,64.9,70.5,66.9,64.4,98,89,76,30.18,30.06,8,1,8,0.04
2013-1-21,77.0,70.7,66.4,71.7,67.7,63.9,98,91,78,30.12,30.00,5,0,5,0.16
2013-1-22,73.9,68.1,63.1,64.5,56.7,48.2,94,69,50,30.18,30.06,12,4,12,0.00
2013-1-23,73.2,66.6,61.9,56.7,52.2,48.6,73,61,45,30.33,30.18,11,3,11,0.00
2013-1-24,73.2,65.2,60.1,53.5,49.4,38.9,77,58,38,30.36,30.24,9,2,9,0.00
2013-1-25,74.8,65.6,59.4,59.2,53.0,48.0,79,64,48,30.36,30.24,9,1,9,0.00
2013-1-26,75.0,66.6,60.1,59.2,55.7,49.4,87,69,48,30.30,30.21,9,1,9,0.00
2013-1-27,76.1,69.4,62.4,61.8,57.9,53.5,86,68,46,30.33,30.24,8,2,8,0.00
2013-1-28,79.3,73.1,69.3,66.2,62.3,58.6,81,69,55,30.36,30.27,9,2,9,0.00
2013-1-29,79.5,73.5,70.9,70.7,66.0,63.3,89,78,65,30.30,30.18,10,2,10,0.00
2013-1-30,79.3,73.2,69.8,67.6,64.4,62.1,90,74,61,30.18,30.00,9,3,232,0.00
2013-1-31,70.5,67.0,59.0,69.2,57.9,35.7,98,75,40,30.24,30.00,11,2,11,0.00
2013-2-1,71.2,62.2,54.0,52.2,45.0,33.3,65,54,40,30.33,30.21,17,4,17,0.00
2013-2-2,72.7,64.0,55.9,54.2,46.1,32.8,82,53,41,30.33,30.18,8,2,8,0.00
2013-2-3,72.3,62.4,56.8,54.3,46.9,36.0,86,60,27,30.21,30.12,10,1,10,0.00
2013-2-4,72.0,62.0,52.3,53.5,46.6,37.5,76,59,35,30.21,30.06,5,1,6,0.00
2013-2-5,76.1,66.2,55.9,61.8,58.0,52.4,92,76,58,30.12,30.06,5,1,5,0.00
2013-2-6,76.3,66.7,63.1,64.6,60.7,57.8,91,82,61,30.15,30.06,5,0,5,0.00
2013-2-7,75.4,73.0,65.7,65.4,64.2,60.5,88,74,70,30.12,29.97,6,2,6,0.00
2013-2-8,81.1,73.2,68.5,70.9,65.3,58.0,97,78,50,30.09,29.97,9,2,10,0.00
2013-2-9,76.8,71.1,66.4,66.5,61.8,57.6,93,73,57,30.21,30.06,9,2,9,0.00
2013-2-10,75.6,71.2,67.5,62.3,59.8,56.5,78,67,59,30.30,30.21,8,3,8,0.00
2013-2-11,78.8,72.4,68.7,64.8,61.3,59.2,79,68,59,30.27,30.15,9,3,9,0.00
2013-2-12,82.8,72.8,65.1,69.2,65.5,62.0,92,79,58,30.18,30.03,10,1,10,0.00
2013-2-13,70.7,69.4,68.9,67.5,66.6,66.0,94,91,88,30.06,30.00,4,0,4,0.00
2013-2-14,80.2,70.2,63.7,71.9,67.2,62.8,98,91,75,30.06,29.88,14,4,15,1.50
2013-2-15,71.2,67.2,63.9,68.5,65.3,63.0,98,94,80,30.09,29.97,7,0,7,0.28
2013-2-16,71.4,64.6,56.3,64.8,54.8,40.4,97,74,38,30.09,29.91,12,3,12,0.00
2013-2-17,59.0,52.5,46.2,40.4,26.2,19.2,55,37,26,30.36,30.09,15,6,15,0.00
2013-2-18,69.4,65.9,64.6,54.8,50.1,45.3,67,57,44,30.30,30.27,7,3,8,0.00
2013-2-19,79.0,69.9,59.7,64.9,58.5,51.0,84,67,58,30.27,30.12,9,3,9,0.00
2013-2-20,79.0,70.2,64.6,65.6,63.3,56.6,93,80,55,30.18,30.06,8,1,8,0.00
2013-2-21,81.0,71.5,65.7,67.2,64.5,63.0,91,80,62,30.12,30.03,6,2,8,0.00
2013-2-22,82.6,75.6,70.0,71.5,68.6,64.6,93,80,65,30.15,30.09,10,4,10,0.00
2013-2-23,83.7,76.4,72.1,72.2,69.9,67.4,94,81,66,30.09,29.97,11,3,11,0.71
2013-2-24,85.3,76.0,71.1,74.2,70.8,66.6,98,85,59,30.03,29.94,8,1,8,0.00
2013-2-25,75.6,74.8,74.8,74.0,70.1,70.0,95,85,85,29.97,29.91,5,0,5,0.00
2013-2-26,81.0,80.2,80.2,69.8,67.9,67.9,69,66,66,29.94,29.85,13,4,13,0.00
2013-2-27,80.2,74.5,65.3,67.9,65.2,58.1,94,74,56,30.03,29.91,8,2,8,0.12
2013-2-28,70.2,64.6,60.6,64.8,51.6,44.7,94,64,40,30.06,29.94,13,2,13,0.00
2013-3-1,66.6,63.3,59.4,55.2,48.7,42.4,73,60,46,30.03,29.94,9,2,9,0.00
2013-3-2,65.7,58.9,54.5,46.7,37.4,30.9,64,45,35,30.09,30.00,13,4,13,0.00
2013-3-3,62.1,55.7,50.7,45.0,38.2,34.9,75,53,37,30.15,30.03,10,4,10,0.00
2013-3-4,66.6,54.1,43.9,43.0,33.7,28.7,68,48,28,30.24,30.15,8,5,8,0.00
2013-3-5,69.8,62.7,50.7,56.5,52.2,43.0,85,69,61,30.24,30.12,6,2,6,0.00
2013-3-6,69.4,61.9,58.8,61.2,56.8,53.9,92,84,70,30.15,30.06,3,1,3,0.00
2013-3-7,61.0,59.6,58.6,53.2,52.6,52.2,80,78,74,30.24,30.21,0,0,0,0.00
2013-3-8,60.6,56.6,54.7,52.5,49.9,47.8,82,78,69,30.24,30.18,6,1,6,0.00
2013-3-10,75.7,72.1,68.7,57.8,55.1,50.3,67,56,46,30.21,30.12,11,4,11,0.00
2013-3-11,79.3,73.1,67.3,59.9,57.5,54.6,70,59,45,30.18,30.03,8,4,8,0.00
2013-3-12,80.8,73.0,69.1,69.3,63.9,59.6,80,73,63,30.06,29.97,8,4,8,0.00
2013-3-13,71.1,69.5,67.1,64.8,63.2,59.1,82,80,76,30.03,30.03,0,0,0,0.00
2013-3-15,72.9,71.3,65.7,48.5,47.5,44.2,51,43,38,30.30,30.21,11,2,11,0.00
2013-3-16,76.5,71.3,63.5,55.4,50.3,48.1,75,48,42,30.24,30.12,9,2,9,0.00
2013-3-17,78.6,69.3,62.4,60.0,56.5,51.7,86,65,46,30.21,30.09,10,2,10,0.00
2013-3-18,81.5,71.1,65.5,69.7,64.1,58.3,91,79,61,30.12,30.00,10,2,10,0.31
2013-3-19,78.8,73.6,69.4,70.3,66.5,64.2,98,80,62,30.06,29.91,10,1,10,0.04
2013-3-20,70.7,68.0,65.5,69.0,65.8,63.1,95,93,87,30.00,29.97,0,0,0,0.00
2013-3-22,78.4,74.1,68.4,68.2,61.9,55.8,87,67,48,30.06,29.97,9,4,10,0.00
2013-3-23,86.9,77.9,71.2,75.4,70.6,68.2,98,80,57,30.03,29.85,12,3,232,0.00
2013-3-24,89.6,80.6,73.4,74.2,69.7,63.1,98,72,44,29.94,29.74,14,4,17,0.04
2013-3-25,79.5,74.0,65.1,72.2,56.1,36.8,91,59,29,30.03,29.80,9,3,9,0.00
2013-3-26,65.1,62.7,59.5,38.1,36.6,34.1,40,38,35,30.06,30.03,12,5,12,0.00
2013-3-27,68.9,60.4,52.7,43.2,39.5,32.0,58,46,36,30.30,30.21,12,4,12,0.00
2013-3-28,72.9,60.9,53.2,47.2,40.8,31.0,70,50,27,30.30,30.24,8,3,8,0.00
2013-3-29,76.1,66.5,56.8,49.9,45.9,38.2,61,48,33,30.33,30.27,10,2,10,0.00
2013-3-30,77.5,67.8,57.6,56.2,50.5,45.7,84,57,34,30.33,30.21,7,0,7,0.00
2013-3-31,82.4,71.5,61.2,64.3,60.1,52.2,86,68,48,30.24,30.09,11,3,11,0.00
2013-4-1,81.5,74.2,69.3,71.1,67.3,59.9,93,80,49,30.12,29.97,9,3,9,0.00
2013-4-2,84.4,74.2,66.9,67.5,64.1,61.1,96,73,47,30.12,30.03,8,2,8,0.00
2013-4-3,86.5,77.0,70.2,69.2,66.2,62.2,86,71,48,30.12,30.03,10,3,10,0.00
2013-4-4,87.3,76.2,70.5,72.3,69.0,66.5,94,79,60,30.09,29.94,11,4,12,0.67
2013-4-5,72.5,69.1,66.2,68.4,66.4,64.7,95,91,84,30.00,29.85,9,1,9,0.12
2013-4-6,78.6,68.5,60.1,64.7,59.8,55.6,95,75,48,30.12,29.97,9,4,9,0.67
2013-4-7,78.3,73.5,69.1,63.1,60.6,56.8,75,64,51,30.15,30.06,8,3,8,0.00
2013-4-8,83.5,72.7,63.3,64.8,60.3,56.4,93,67,43,30.18,30.09,9,1,9,0.00
2013-4-9,84.2,76.1,71.4,68.2,65.0,60.5,84,69,48,30.21,30.09,9,2,9,0.08
2013-4-10,86.4,77.6,71.4,72.7,69.1,65.4,87,76,60,30.15,30.06,10,2,10,0.00
2013-4-11,85.8,80.5,75.0,73.0,70.8,69.0,87,73,60,30.06,29.94,13,5,13,0.00
2013-4-12,84.6,78.8,76.1,77.1,73.8,72.7,90,85,75,30.00,29.91,8,4,11,0.35
2013-4-13,86.2,76.8,72.7,75.1,71.3,64.9,95,84,67,30.00,29.91,8,1,8,0.04
2013-4-14,89.1,79.1,72.3,77.6,72.4,69.4,98,81,57,30.00,29.94,11,3,11,0.00
2013-4-15,91.6,78.6,72.7,77.1,72.4,65.9,95,82,55,30.12,29.97,15,2,15,0.55
2013-4-16,87.6,78.1,72.1,77.4,72.0,68.6,97,82,63,30.18,30.06,9,2,9,0.08
2013-4-17,85.5,78.5,72.5,69.3,66.6,63.5,86,68,48,30.15,30.06,9,3,9,0.00
2013-4-18,86.0,79.7,73.8,72.4,69.5,64.8,84,72,58,30.12,30.03,10,3,10,0.00
2013-4-19,80.1,77.2,75.6,72.4,71.1,69.8,89,81,76,30.06,30.03,8,4,8,0.00
2013-4-20,90.7,82.5,0.0,77.1,72.6,0.0,91,72,58,30.09,30.00,9,3,9,0.24
2013-4-22,87.1,78.4,72.3,73.6,69.1,65.6,94,74,55,30.09,29.97,6,2,6,0.04
2013-4-23,83.7,76.1,68.9,68.1,63.5,56.5,93,67,43,30.15,30.00,11,4,11,0.00
2013-4-24,73.6,73.1,72.9,59.1,58.4,57.4,62,60,58,30.15,30.09,6,2,6,0.00
2013-4-25,85.3,80.6,72.9,61.9,58.1,55.4,61,47,38,30.24,30.18,11,3,11,0.00
2013-4-26,77.2,71.7,67.3,65.1,60.6,58.2,84,68,60,30.27,30.18,8,0,8,0.00
2013-4-28,87.1,80.6,75.6,63.2,60.1,57.5,64,50,40,30.15,30.03,10,4,10,0.00
2013-4-29,81.0,78.0,72.9,69.6,65.0,60.5,78,65,60,30.09,29.97,7,4,7,0.00
2013-4-30,84.7,77.5,72.5,72.3,69.4,66.2,89,76,59,30.03,29.97,8,2,8,0.08
2013-5-1,73.0,73.0,73.0,69.6,69.6,69.3,89,89,89,30.03,30.03,0,0,0,0.00
2013-5-2,73.8,70.6,69.3,71.0,69.1,66.9,97,95,90,29.97,29.85,11,2,11,3.78
2013-5-3,87.1,75.8,69.4,72.2,69.0,64.6,98,81,49,29.85,29.71,8,1,10,3.58
2013-5-4,88.3,78.0,69.1,71.1,67.0,61.6,96,71,42,29.85,29.74,9,2,9,3.58
2013-5-5,83.5,74.7,69.8,67.6,59.6,47.4,92,64,30,29.97,29.83,9,3,9,3.58
2013-5-6,84.7,73.1,63.0,61.8,57.5,49.3,87,60,41,30.06,29.97,8,2,8,3.58
2013-5-7,87.6,79.2,70.3,62.5,56.6,51.9,63,47,30,30.12,30.03,10,2,10,0.00
2013-5-8,89.4,77.0,64.9,63.6,57.9,51.4,89,55,28,30.18,30.09,6,1,6,0.00
2013-5-9,88.0,80.5,69.1,71.3,65.5,57.4,77,61,53,30.18,30.12,7,2,7,0.00
2013-5-10,91.0,82.2,73.8,73.4,71.1,66.7,92,71,46,30.15,30.15,9,2,9,0.00
2013-5-11,90.1,80.6,75.0,79.1,73.0,70.4,93,79,58,30.15,30.03,11,2,11,0.08
2013-5-12,91.4,79.0,73.9,74.2,71.3,66.3,91,79,50,30.12,30.00,7,2,7,0.98
2013-5-13,87.3,79.4,72.7,71.7,67.8,63.8,94,71,48,30.15,30.09,12,4,12,0.00
2013-5-14,83.3,75.8,71.1,64.1,56.9,51.3,70,53,35,30.24,30.12,8,3,8,0.00
2013-5-15,73.0,72.2,70.3,56.3,54.6,53.2,61,54,51,30.21,30.18,4,1,4,0.00
2013-5-16,89.1,82.2,75.4,62.0,60.0,57.2,61,47,38,30.18,30.09,9,2,9,0.00
2013-5-17,90.1,80.4,71.4,71.7,68.2,61.4,85,68,49,30.12,30.06,8,2,8,0.00
2013-5-18,85.1,78.7,74.7,72.8,71.8,68.3,92,80,65,30.15,30.09,9,2,9,0.12
2013-5-19,91.2,82.1,76.3,69.7,68.4,66.3,80,65,44,30.15,30.06,6,2,6,0.00
2013-5-20,76.5,71.5,0.0,75.6,69.6,0.0,98,89,83,30.15,30.03,10,1,10,4.41
2013-5-21,86.9,81.2,74.5,77.8,71.8,67.8,97,74,57,30.09,29.97,8,3,8,4.41
2013-5-22,90.1,79.3,75.0,77.2,72.6,69.5,91,81,61,30.03,29.94,9,2,9,0.47
2013-5-23,93.6,85.4,74.1,75.5,70.5,63.4,95,64,37,30.06,29.97,10,2,10,0.00
2013-5-24,93.0,88.2,79.5,75.8,69.8,61.7,88,57,38,30.09,30.03,8,3,8,0.00
2013-5-27,87.8,84.8,81.7,71.4,69.4,68.4,68,60,54,30.21,30.12,10,4,10,0.00
2013-5-28,86.2,81.6,77.7,73.5,72.3,70.6,84,74,63,30.15,30.09,13,4,13,0.04
2013-5-29,83.8,77.5,72.5,75.8,71.7,67.9,96,83,62,30.15,30.09,13,3,13,0.51
2013-5-30,88.3,83.4,75.9,75.8,71.6,68.4,88,68,57,30.12,30.06,15,5,15,0.51
2013-5-31,87.8,85.2,82.9,75.2,74.1,72.9,75,70,63,30.12,30.06,13,4,13,0.00
2013-6-1,80.6,77.3,76.1,77.4,75.2,74.4,96,93,86,30.06,30.03,6,0,6,0.35
2013-6-2,91.6,80.9,74.3,76.7,74.4,69.6,97,82,59,30.06,29.97,4,1,4,0.00
2013-6-3,87.6,82.4,77.2,76.6,74.1,71.6,89,77,64,30.09,29.97,8,2,8,0.35
2013-6-4,79.0,76.3,75.2,76.1,74.5,73.7,96,94,89,30.09,30.06,0,0,0,0.04
2013-6-13,93.6,86.5,81.5,79.2,73.4,69.5,82,66,47,30.12,30.12,6,1,6,0.04
2013-6-14,87.6,85.6,83.7,75.3,74.1,72.9,76,69,64,30.00,0.00,5,3,5,0.00
2013-6-21,96.8,92.4,84.0,72.3,70.5,67.9,65,49,41,0.00,0.00,8,3,8,0.00
2013-6-22,95.2,93.2,90.1,73.3,71.2,68.1,55,49,43,0.00,0.00,8,4,8,0.00
2013-6-24,95.9,92.1,84.9,73.5,70.7,67.9,62,50,41,0.00,0.00,10,4,10,0.00
2013-6-26,97.2,90.6,87.3,74.9,74.0,68.6,66,59,42,30.12,0.00,6,3,6,0.00
2013-6-28,98.1,90.3,77.5,75.8,72.7,68.1,89,58,44,30.03,29.91,8,3,8,0.47
2013-6-29,94.3,79.7,76.5,80.7,74.8,72.5,92,85,57,29.97,29.91,6,0,6,0.83
2013-6-30,77.0,76.7,75.4,75.4,75.2,73.5,96,95,94,29.97,0.00,4,0,4,0.83
2013-7-1,86.0,81.8,76.8,77.6,76.2,71.7,96,84,76,30.09,29.97,13,2,13,0.83
2013-7-2,91.8,82.2,78.1,77.5,76.2,71.4,94,83,60,30.15,30.03,8,3,8,0.83
2013-7-4,94.8,90.8,86.5,77.4,74.5,72.0,68,59,53,30.18,30.15,13,8,13,0.08
2013-7-5,85.1,81.5,78.8,78.3,75.5,73.6,88,82,74,30.18,30.12,11,4,11,0.43
2013-7-7,93.4,90.7,86.2,76.2,73.7,71.3,67,58,53,30.15,30.09,10,4,10,0.43
2013-7-8,94.8,92.6,88.3,72.4,69.8,66.9,54,48,42,30.21,30.12,8,3,8,0.00
2013-7-9,90.5,88.1,79.3,76.2,72.2,67.8,86,60,49,30.18,30.09,6,2,6,0.00
2013-7-10,91.0,85.9,79.5,76.2,74.3,72.4,89,69,57,30.15,30.06,8,3,8,0.00
2013-7-11,92.8,91.3,85.1,77.2,75.1,71.7,76,60,52,30.06,30.00,10,3,10,0.00
2013-7-12,94.3,84.2,73.2,79.0,74.2,68.6,97,74,48,30.00,29.94,17,2,17,2.44
2013-7-13,82.9,76.0,73.9,77.1,73.6,72.0,97,92,74,30.06,30.00,6,1,6,3.55
2013-7-14,91.9,79.2,73.6,82.5,73.6,71.2,97,84,54,30.15,30.03,9,2,10,0.16
2013-7-15,93.2,82.8,73.2,81.5,73.5,71.7,96,76,51,30.15,30.06,6,1,6,0.16
2013-7-16,83.7,81.1,75.9,73.9,71.0,68.3,88,72,60,30.21,30.12,12,3,13,0.16
2013-7-17,84.2,79.5,75.4,76.0,74.0,71.5,94,84,71,30.21,30.09,6,3,6,0.20
2013-7-18,90.1,80.8,74.7,78.8,74.3,67.4,96,81,61,30.18,30.12,11,2,11,0.47
2013-7-19,89.2,81.4,74.7,79.6,76.1,73.4,97,85,65,30.18,30.09,8,2,8,0.20
2013-7-21,89.2,84.6,77.4,80.8,78.0,71.8,95,81,69,30.21,30.09,8,2,8,0.00
2013-7-22,77.4,77.4,77.4,72.5,72.5,72.5,85,85,85,30.21,30.12,2,0,2,0.00
2013-7-26,89.1,83.7,81.0,78.1,75.1,73.4,81,76,62,30.06,29.97,6,2,6,0.39
2013-7-27,91.6,81.2,77.5,78.2,75.8,74.1,91,84,62,30.06,29.97,10,1,10,0.75
2013-7-28,86.7,81.2,76.3,78.2,76.0,71.3,91,84,73,30.12,30.06,6,1,6,0.75
2013-7-29,93.9,83.8,77.4,79.4,76.3,74.7,95,80,57,30.18,30.06,7,1,7,0.75
2013-7-30,82.6,80.8,77.0,77.4,76.2,74.2,91,86,82,30.21,30.15,4,1,4,0.75
2013-8-3,0.0,0.0,0.0,0.0,0.0,0.0,0,0,100,30.21,30.12,6,1,6,1.30
2013-8-4,0.0,0.0,0.0,0.0,0.0,0.0,0,0,100,30.09,30.06,12,2,12,1.30
2013-8-6,0.0,0.0,0.0,0.0,0.0,0.0,0,0,100,30.03,29.94,7,2,7,0.08
2013-8-7,0.0,0.0,0.0,0.0,0.0,0.0,0,0,100,30.03,29.97,11,4,11,0.00
2013-8-9,0.0,0.0,0.0,0.0,0.0,0.0,0,0,100,30.12,30.06,12,4,12,0.20
2013-8-10,88.3,88.1,80.1,68.0,62.6,62.4,63,43,42,30.18,30.15,10,4,10,0.00
2013-8-11,96.6,92.0,78.4,77.1,75.0,59.9,75,58,49,30.18,30.12,9,3,9,0.00
2013-8-12,87.3,87.0,86.4,74.1,73.8,73.3,66,65,64,30.12,30.12,6,3,7,0.00
2013-8-13,88.7,88.4,88.2,76.7,76.5,76.3,69,68,67,30.06,30.06,5,3,5,0.00
2013-8-14,96.1,90.3,83.1,76.6,72.9,69.5,73,57,45,30.06,29.97,8,3,8,0.00
2013-8-15,87.6,84.3,82.0,76.1,74.5,72.8,81,73,67,30.12,30.00,4,0,4,0.35
2013-8-16,95.9,86.5,79.5,80.3,76.4,73.9,89,73,51,30.09,30.03,8,2,8,0.00
2013-8-17,84.2,83.1,82.8,78.0,77.5,77.0,84,83,79,30.09,30.06,4,4,4,0.00
2013-10-11,0.0,0.0,0.0,0.0,0.0,0.0,0,0,100,30.06,29.97,10,2,10,0.00
2013-10-12,0.0,0.0,0.0,0.0,0.0,0.0,0,0,100,30.06,30.00,8,1,9,0.00
2013-10-13,0.0,0.0,0.0,0.0,0.0,0.0,0,0,100,30.09,30.00,10,3,11,0.00
2013-10-14,0.0,0.0,0.0,0.0,0.0,0.0,0,0,100,30.03,29.94,8,3,8,0.00
2013-10-15,0.0,0.0,0.0,0.0,0.0,0.0,0,0,100,30.00,29.91,8,3,8,0.00
2013-10-16,0.0,0.0,0.0,0.0,0.0,0.0,0,0,100,30.00,29.94,6,1,6,0.00
2013-10-17,0.0,0.0,0.0,0.0,0.0,0.0,0,0,100,30.00,29.94,6,1,6,0.00
2013-10-18,0.0,0.0,0.0,0.0,0.0,0.0,0,0,100,30.03,29.94,7,1,7,0.00
2013-10-19,0.0,0.0,0.0,0.0,0.0,0.0,0,0,100,30.00,29.91,8,3,8,0.00
2013-10-20,0.0,0.0,0.0,0.0,0.0,0.0,0,0,100,30.00,29.91,7,2,7,0.00
2013-10-21,0.0,0.0,0.0,0.0,0.0,0.0,0,0,100,30.06,29.94,8,3,8,0.00
2013-10-22,0.0,0.0,0.0,0.0,0.0,0.0,0,0,100,30.00,29.88,8,2,8,0.00
2013-10-23,0.0,0.0,0.0,0.0,0.0,0.0,0,0,100,29.94,29.85,12,4,12,0.00
2013-10-24,0.0,0.0,0.0,0.0,0.0,0.0,0,0,100,30.12,30.03,11,4,11,0.00
2013-10-25,0.0,0.0,0.0,0.0,0.0,0.0,0,0,100,30.21,30.18,6,4,6,0.00
2013-11-3,0.0,0.0,0.0,0.0,0.0,0.0,0,0,100,30.03,30.00,12,4,12,0.00
2013-11-4,0.0,0.0,0.0,0.0,0.0,0.0,0,0,100,30.12,30.06,14,4,14,0.00
2013-11-5,0.0,0.0,0.0,0.0,0.0,0.0,0,0,100,30.15,30.06,14,4,14,0.00
2013-11-6,0.0,0.0,0.0,0.0,0.0,0.0,0,0,100,30.12,30.03,11,3,11,0.00
2013-11-7,0.0,0.0,0.0,0.0,0.0,0.0,0,0,100,30.06,29.97,9,3,9,0.00
2013-11-8,0.0,0.0,0.0,0.0,0.0,0.0,0,0,100,30.06,30.00,15,5,15,0.31
2013-11-9,0.0,0.0,0.0,0.0,0.0,0.0,0,0,100,30.15,30.06,14,3,14,0.71
2013-11-10,0.0,0.0,0.0,0.0,0.0,0.0,0,0,100,30.18,30.09,10,3,10,0.71
2013-11-11,0.0,0.0,0.0,0.0,0.0,0.0,0,0,100,30.18,30.09,10,2,10,0.00
2013-11-12,0.0,0.0,0.0,0.0,0.0,0.0,0,0,100,30.12,30.00,9,2,9,0.00
2013-11-13,0.0,0.0,0.0,0.0,0.0,0.0,0,0,100,30.24,30.12,17,7,17,0.00
2013-11-14,0.0,0.0,0.0,0.0,0.0,0.0,0,0,100,30.30,30.21,11,4,13,0.00
2013-11-15,0.0,0.0,0.0,0.0,0.0,0.0,0,0,100,30.18,30.09,13,3,13,0.00
2013-11-16,0.0,0.0,0.0,0.0,0.0,0.0,0,0,100,30.15,30.06,8,3,8,0.08
2013-11-17,0.0,0.0,0.0,0.0,0.0,0.0,0,0,100,30.12,30.03,9,3,9,0.08
2013-11-18,0.0,0.0,0.0,0.0,0.0,0.0,0,0,100,30.06,29.97,8,0,8,0.04
2013-11-19,0.0,0.0,0.0,0.0,0.0,0.0,0,0,100,29.97,29.88,8,2,8,2.13
2013-11-20,0.0,0.0,0.0,0.0,0.0,0.0,0,0,100,30.09,30.00,6,1,6,2.13
2013-11-21,0.0,0.0,0.0,0.0,0.0,0.0,0,0,100,30.18,30.12,8,2,8,0.79
2013-11-22,0.0,0.0,0.0,0.0,0.0,0.0,0,0,100,30.21,30.12,14,4,14,0.79
2013-11-23,0.0,0.0,0.0,0.0,0.0,0.0,0,0,100,30.12,30.00,8,2,8,0.00
2013-11-25,0.0,0.0,0.0,0.0,0.0,0.0,0,0,100,30.24,30.15,13,4,13,0.00
2013-11-26,0.0,0.0,0.0,0.0,0.0,0.0,0,0,100,30.03,29.88,11,4,11,0.00
2013-11-27,0.0,0.0,0.0,0.0,0.0,0.0,0,0,100,30.00,29.88,10,3,10,0.04
2013-11-28,0.0,0.0,0.0,0.0,0.0,0.0,0,0,100,30.30,30.21,13,4,13,0.04
2013-11-29,0.0,0.0,0.0,0.0,0.0,0.0,0,0,100,30.33,30.24,13,4,13,0.00
2013-11-30,0.0,0.0,0.0,0.0,0.0,0.0,0,0,100,30.27,30.15,14,4,14,0.08
2013-12-1,0.0,0.0,0.0,0.0,0.0,0.0,0,0,100,30.15,30.03,10,1,10,0.63
2013-12-2,0.0,0.0,0.0,0.0,0.0,0.0,0,0,100,29.97,29.85,9,2,9,0.67
2013-12-3,0.0,0.0,0.0,0.0,0.0,0.0,0,0,100,30.03,29.97,5,1,5,0.00
2013-12-4,0.0,0.0,0.0,0.0,0.0,0.0,0,0,100,30.12,30.06,6,1,6,0.00
2013-12-5,0.0,0.0,0.0,0.0,0.0,0.0,0,0,100,30.21,30.12,8,3,8,0.00
2013-12-6,0.0,0.0,0.0,0.0,0.0,0.0,0,0,100,30.24,30.15,9,2,9,0.00
2013-12-7,0.0,0.0,0.0,0.0,0.0,0.0,0,0,100,30.27,30.18,6,2,6,0.04
2013-12-8,0.0,0.0,0.0,0.0,0.0,0.0,0,0,100,30.27,30.18,9,3,9,0.04
2013-12-9,0.0,0.0,0.0,0.0,0.0,0.0,0,0,100,30.24,30.15,9,3,9,0.00
2013-12-10,0.0,0.0,0.0,0.0,0.0,0.0,0,0,100,30.21,30.12,6,2,6,0.00
2013-12-11,0.0,0.0,0.0,0.0,0.0,0.0,0,0,100,30.24,30.18,8,1,8,0.00
2013-12-12,0.0,0.0,0.0,0.0,0.0,0.0,0,0,100,30.27,30.21,17,6,17,0.00
2013-12-13,0.0,0.0,0.0,0.0,0.0,0.0,0,0,100,30.24,30.15,11,3,11,0.00
2013-12-14,0.0,0.0,0.0,0.0,0.0,0.0,0,0,100,30.15,30.03,12,3,12,18.19
2013-12-15,0.0,0.0,0.0,0.0,0.0,0.0,0,0,100,30.09,29.97,12,2,12,0.00
2013-12-16,0.0,0.0,0.0,0.0,0.0,0.0,0,0,100,30.18,30.12,8,4,8,0.00
2013-12-17,0.0,0.0,0.0,0.0,0.0,0.0,0,0,100,30.24,30.15,10,3,10,0.00
2013-12-18,0.0,0.0,0.0,0.0,0.0,0.0,0,0,100,30.30,30.21,12,5,12,0.00
2013-12-19,0.0,0.0,0.0,0.0,0.0,0.0,0,0,100,30.30,30.27,8,3,8,0.00
2013-12-20,0.0,0.0,0.0,0.0,0.0,0.0,0,0,100,30.24,30.24,6,5,6,0.00
2013-12-21,0.0,0.0,0.0,0.0,0.0,0.0,0,0,100,30.18,30.18,5,3,5,0.00
2013-12-22,0.0,0.0,0.0,0.0,0.0,0.0,0,0,100,30.21,30.15,13,4,13,0.00
2013-12-23,0.0,0.0,0.0,0.0,0.0,0.0,0,0,100,30.21,30.15,10,4,10,0.00
2013-12-24,0.0,0.0,0.0,0.0,0.0,0.0,0,0,100,30.21,30.18,9,2,9,0.00
2013-12-25,0.0,0.0,0.0,0.0,0.0,0.0,0,0,100,30.21,30.15,11,3,11,0.00
2013-12-26,0.0,0.0,0.0,0.0,0.0,0.0,0,0,100,30.21,30.12,8,2,8,0.00
2013-12-27,0.0,0.0,0.0,0.0,0.0,0.0,0,0,100,30.24,30.15,8,2,8,0.00
2013-12-28,0.0,0.0,0.0,0.0,0.0,0.0,0,0,100,30.21,30.09,10,3,10,0.00
2013-12-29,0.0,0.0,0.0,0.0,0.0,0.0,0,0,100,30.09,29.97,10,3,10,0.00
2013-12-30,0.0,0.0,0.0,0.0,0.0,0.0,0,0,100,30.15,30.06,8,2,8,0.00
2013-12-31,0.0,0.0,0.0,0.0,0.0,0.0,0,0,100,30.27,30.21,14,4,14,0.00
2014-1-1,0.0,0.0,0.0,0.0,0.0,0.0,0,0,100,30.24,30.12,7,2,7,0.00
2014-1-2,0.0,0.0,0.0,0.0,0.0,0.0,0,0,100,30.06,29.91,11,3,11,0.00